Time;durP1;ratioP1;P1;durP2;ratioP2;P2;SDS_P1;SDS_P2;PMS_P1;PMS_P2;Temp;Humidity;BMP_temperature;BMP_pressure;BME280_temperature;BME280_humidity;BME280_pressure;Samples;Min_cycle;Max_cycle;Signal;HPM_P1;HPM_P2
2024/04/02 00:00:36;;;;;;;1999.90;999.90;;;10.10;99.90;;;;;;5033699;28;20519;-68
2024/04/02 00:03:06;;;;;;;1999.90;999.90;;;10.10;99.90;;;;;;5034033;28;20481;-68
2024/04/02 00:05:32;;;;;;;1999.90;999.90;;;10.10;99.90;;;;;;5032359;28;20044;-68
2024/04/02 00:07:57;;;;;;;1999.90;999.90;;;10.00;99.90;;;;;;5033677;28;20021;-68
2024/04/02 00:10:23;;;;;;;1999.90;999.90;;;10.00;99.90;;;;;;5033627;28;20026;-68
2024/04/02 00:12:48;;;;;;;1999.90;999.90;;;10.00;99.90;;;;;;5033781;28;20530;-68
2024/04/02 00:15:14;;;;;;;1999.90;999.90;;;10.00;99.90;;;;;;5034118;28;20053;-70
2024/04/02 00:17:44;;;;;;;1999.90;999.90;;;10.00;99.90;;;;;;5033379;28;20106;-68
2024/04/02 00:20:10;;;;;;;1999.90;999.90;;;10.20;99.90;;;;;;5028684;28;20393;-68
2024/04/02 00:22:35;;;;;;;1999.90;999.90;;;10.30;99.90;;;;;;5027895;28;20024;-68
2024/04/02 00:25:01;;;;;;;1999.90;999.90;;;10.30;99.90;;;;;;5033156;28;20037;-68
2024/04/02 00:27:30;;;;;;;1999.90;999.90;;;10.20;99.90;;;;;;5033773;28;20105;-68
2024/04/02 00:29:56;;;;;;;1999.90;999.90;;;10.20;99.90;;;;;;5033532;28;20025;-68
2024/04/02 00:32:22;;;;;;;1999.90;999.90;;;10.20;99.90;;;;;;5033230;28;20018;-69
2024/04/02 00:34:48;;;;;;;1999.90;999.90;;;10.40;99.90;;;;;;5033709;28;20026;-68
2024/04/02 00:37:17;;;;;;;1999.90;999.90;;;10.70;99.90;;;;;;5033205;28;20037;-68
2024/04/02 00:39:44;;;;;;;1999.90;999.90;;;11.00;99.90;;;;;;5033284;28;20060;-68
2024/04/02 00:42:09;;;;;;;1999.90;999.90;;;11.00;99.90;;;;;;5033063;28;20484;-68
2024/04/02 00:44:35;;;;;;;1999.90;999.90;;;11.10;99.90;;;;;;5033225;28;20037;-74
2024/04/02 00:47:02;;;;;;;1999.90;999.90;;;11.20;99.90;;;;;;5033077;28;20071;-68
2024/04/02 00:49:29;;;;;;;1999.90;999.90;;;11.20;99.90;;;;;;5032924;28;20112;-68
2024/04/02 00:51:55;;;;;;;1999.90;999.90;;;11.10;99.90;;;;;;5033320;28;20026;-68
2024/04/02 00:54:21;;;;;;;1999.90;999.90;;;11.20;99.90;;;;;;5032798;28;20017;-68
2024/04/02 00:56:47;;;;;;;1999.90;999.90;;;11.20;99.90;;;;;;5032989;28;20092;-68
2024/04/02 00:59:13;;;;;;;1999.90;999.90;;;11.00;99.90;;;;;;5033006;28;20025;-67
2024/04/02 01:01:39;;;;;;;1999.90;999.90;;;10.20;99.90;;;;;;5032793;28;20113;-66
2024/04/02 01:04:05;;;;;;;1999.90;999.90;;;9.30;99.90;;;;;;5032969;28;20105;-67
2024/04/02 01:06:31;;;;;;;1999.90;999.90;;;9.00;99.90;;;;;;5031944;28;20029;-67
2024/04/02 01:08:57;;;;;;;1999.90;999.90;;;9.10;99.90;;;;;;5032883;28;20091;-73
2024/04/02 01:11:24;;;;;;;1999.90;999.90;;;9.30;99.90;;;;;;5032615;28;20045;-67
2024/04/02 01:13:51;;;;;;;1999.90;999.90;;;9.30;99.90;;;;;;5032576;28;20025;-67
2024/04/02 01:16:17;;;;;;;1999.90;999.90;;;9.20;99.90;;;;;;5032725;28;20025;-67
2024/04/02 01:18:46;;;;;;;1999.90;999.90;;;9.20;99.90;;;;;;5032086;28;20046;-68
2024/04/02 01:21:16;;;;;;;1999.90;999.90;;;9.30;99.90;;;;;;5032879;28;20056;-67
2024/04/02 01:23:42;;;;;;;1999.90;999.90;;;9.40;99.90;;;;;;5032447;28;20028;-74
2024/04/02 01:26:08;;;;;;;1999.90;999.90;;;9.90;99.90;;;;;;5032546;28;20029;-67
2024/04/02 01:28:33;;;;;;;1999.90;999.90;;;10.00;99.90;;;;;;5032770;28;20385;-67
2024/04/02 01:30:59;;;;;;;1999.90;999.90;;;10.40;99.90;;;;;;5032487;28;20025;-67
2024/04/02 01:33:25;;;;;;;1999.90;999.90;;;10.60;99.90;;;;;;5032758;28;20068;-67
2024/04/02 01:35:50;;;;;;;1999.90;999.90;;;10.70;99.90;;;;;;5031937;28;20037;-67
2024/04/02 01:38:16;;;;;;;1999.90;999.90;;;10.90;99.90;;;;;;5032008;28;20408;-72
2024/04/02 01:40:42;;;;;;;1999.90;999.90;;;11.00;99.90;;;;;;5032196;28;20049;-67
2024/04/02 01:43:08;;;;;;;1999.90;999.90;;;10.90;99.90;;;;;;5032416;28;20036;-67
2024/04/02 01:45:33;;;;;;;1999.90;999.90;;;10.90;99.90;;;;;;5032419;28;20029;-67
2024/04/02 01:47:59;;;;;;;1999.90;999.90;;;10.90;99.90;;;;;;5032272;28;20095;-67
2024/04/02 01:50:25;;;;;;;1999.90;999.90;;;10.90;99.90;;;;;;5032205;28;20420;-68
2024/04/02 01:52:51;;;;;;;1999.90;999.90;;;10.90;99.90;;;;;;5032326;28;20025;-68
2024/04/02 01:55:16;;;;;;;1999.90;999.90;;;11.00;99.90;;;;;;5032479;28;20120;-74
2024/04/02 01:57:42;;;;;;;1999.90;999.90;;;11.00;99.90;;;;;;5032603;28;20036;-68
2024/04/02 02:00:08;;;;;;;1999.90;999.90;;;11.10;99.90;;;;;;5032435;28;20033;-68
2024/04/02 02:02:34;;;;;;;1999.90;999.90;;;11.10;99.90;;;;;;5032439;28;20068;-73
2024/04/02 02:05:00;;;;;;;1999.90;999.90;;;11.10;99.90;;;;;;5032179;28;20029;-74
2024/04/02 02:07:25;;;;;;;1999.90;999.90;;;11.10;99.90;;;;;;5032354;28;20033;-68
2024/04/02 02:09:51;;;;;;;1999.90;999.90;;;11.00;99.90;;;;;;5032239;28;20396;-68
2024/04/02 02:12:16;;;;;;;1999.90;999.90;;;11.00;99.90;;;;;;5032330;28;20029;-73
2024/04/02 02:14:42;;;;;;;1999.90;999.90;;;11.00;99.90;;;;;;5032423;28;20495;-73
2024/04/02 02:17:08;;;;;;;1999.90;999.90;;;11.00;99.90;;;;;;5032074;28;20448;-68
2024/04/02 02:19:33;;;;;;;1999.90;999.90;;;11.00;99.90;;;;;;5031794;28;20057;-73
2024/04/02 02:21:59;;;;;;;1999.90;999.90;;;11.00;99.90;;;;;;5031778;28;20022;-68
2024/04/02 02:24:25;;;;;;;1999.90;999.90;;;11.00;99.90;;;;;;5031907;28;20774;-72
2024/04/02 02:26:55;;;;;;;1999.90;999.90;;;11.00;99.90;;;;;;5032411;28;20111;-68
2024/04/02 02:29:25;;;;;;;1999.90;999.90;;;11.00;99.90;;;;;;5034417;28;20480;-68
2024/04/02 02:31:52;;;;;;;1999.90;999.90;;;11.10;99.90;;;;;;5035068;28;20025;-69
2024/04/02 02:34:17;;;;;;;1999.90;999.90;;;11.10;99.90;;;;;;5035449;28;20488;-68
2024/04/02 02:36:43;;;;;;;1999.90;999.90;;;11.00;99.90;;;;;;5035382;28;20025;-68
2024/04/02 02:39:11;;;;;;;1999.90;999.90;;;11.00;99.90;;;;;;5035921;28;20520;-68
2024/04/02 02:41:36;;;;;;;1999.90;999.90;;;11.10;99.90;;;;;;5035434;28;20022;-73
2024/04/02 02:44:02;;;;;;;1999.90;999.90;;;11.20;99.90;;;;;;5035394;28;20022;-68
2024/04/02 02:46:28;;;;;;;1999.90;999.90;;;11.10;99.90;;;;;;5035257;28;20034;-68
2024/04/02 02:48:54;;;;;;;1999.90;999.90;;;11.10;99.90;;;;;;5035409;28;20037;-68
2024/04/02 02:51:20;;;;;;;1999.90;999.90;;;11.20;99.90;;;;;;5035146;28;20116;-68
2024/04/02 02:53:46;;;;;;;1999.90;999.90;;;11.30;99.90;;;;;;5035221;28;20124;-73
2024/04/02 02:56:11;;;;;;;1999.90;999.90;;;11.20;99.90;;;;;;5035253;28;20041;-68
2024/04/02 02:58:37;;;;;;;1999.90;999.90;;;11.20;99.90;;;;;;5035197;28;20025;-68
2024/04/02 03:01:06;;;;;;;1999.90;999.90;;;11.20;99.90;;;;;;5035307;28;20033;-68
2024/04/02 03:03:31;;;;;;;1999.90;999.90;;;11.20;99.90;;;;;;5034979;28;20108;-68
2024/04/02 03:05:57;;;;;;;1999.90;999.90;;;11.20;99.90;;;;;;5034776;28;20104;-73
2024/04/02 03:08:23;;;;;;;1999.90;999.90;;;11.20;99.90;;;;;;5034910;28;20485;-72
2024/04/02 03:11:01;;;;;;;1999.90;999.90;;;11.20;99.90;;;;;;5034680;28;20136;-74
2024/04/02 03:13:27;;;;;;;1999.90;999.90;;;11.30;99.90;;;;;;5035001;28;20057;-68
2024/04/02 03:15:53;;;;;;;1999.90;999.90;;;11.30;99.90;;;;;;5034868;28;20028;-74
2024/04/02 03:18:19;;;;;;;1999.90;999.90;;;11.30;99.90;;;;;;5034723;28;20075;-68
2024/04/02 03:20:46;;;;;;;1999.90;999.90;;;11.20;99.90;;;;;;5034597;28;20045;-74
2024/04/02 03:23:12;;;;;;;1999.90;999.90;;;11.30;99.90;;;;;;5034320;28;20443;-74
2024/04/02 03:25:38;;;;;;;1999.90;999.90;;;11.30;99.90;;;;;;5034434;28;20056;-68
2024/04/02 03:28:05;;;;;;;1999.90;999.90;;;11.30;99.90;;;;;;5034872;28;20032;-68
2024/04/02 03:30:30;;;;;;;1999.90;999.90;;;11.30;99.90;;;;;;5034173;28;20032;-68
2024/04/02 03:32:56;;;;;;;1999.90;999.90;;;11.30;99.90;;;;;;5034103;28;20033;-68
2024/04/02 03:35:22;;;;;;;1999.90;999.90;;;11.40;99.90;;;;;;5034040;28;20032;-74
2024/04/02 03:37:47;;;;;;;1999.90;999.90;;;11.30;99.90;;;;;;5034265;28;20500;-68
2024/04/02 03:40:13;;;;;;;1999.90;999.90;;;11.40;99.90;;;;;;5034447;28;20071;-74
2024/04/02 03:42:39;;;;;;;1999.90;999.90;;;11.40;99.90;;;;;;5034163;28;20057;-68
2024/04/02 03:45:06;;;;;;;1999.90;999.90;;;11.40;99.90;;;;;;5033514;28;20072;-68
2024/04/02 03:47:32;;;;;;;1999.90;999.90;;;11.40;99.90;;;;;;5034105;28;20061;-73
2024/04/02 03:49:57;;;;;;;1999.90;999.90;;;11.40;99.90;;;;;;5033849;28;20103;-68
2024/04/02 03:52:23;;;;;;;1999.90;999.90;;;11.50;99.90;;;;;;5034085;28;20503;-73
2024/04/02 03:54:49;;;;;;;1999.90;999.90;;;11.50;99.90;;;;;;5034090;28;20017;-68
2024/04/02 03:57:14;;;;;;;1999.90;999.90;;;11.60;99.90;;;;;;5034228;28;20026;-68
2024/04/02 03:59:40;;;;;;;1999.90;999.90;;;11.60;99.90;;;;;;5034248;28;20025;-68
2024/04/02 04:02:06;;;;;;;1999.90;999.90;;;11.60;99.90;;;;;;5033587;28;20025;-68
2024/04/02 04:04:32;;;;;;;1999.90;999.90;;;11.50;99.90;;;;;;5034016;28;20079;-74
2024/04/02 04:06:57;;;;;;;1999.90;999.90;;;11.60;99.90;;;;;;5033033;28;20095;-68
2024/04/02 04:09:26;;;;;;;1999.90;999.90;;;11.60;99.90;;;;;;5033932;28;20380;-74
2024/04/02 04:11:52;;;;;;;1999.90;999.90;;;11.60;99.90;;;;;;5033945;28;20044;-68
2024/04/02 04:14:17;;;;;;;1999.90;999.90;;;11.70;99.90;;;;;;5033641;28;20488;-74
2024/04/02 04:16:43;;;;;;;1999.90;999.90;;;11.80;99.90;;;;;;5033874;28;20037;-68
2024/04/02 04:19:09;;;;;;;1999.90;999.90;;;11.70;99.90;;;;;;5033010;28;20052;-74
2024/04/02 04:21:36;;;;;;;1999.90;999.90;;;11.70;99.90;;;;;;5033433;28;20503;-74
2024/04/02 04:24:01;;;;;;;1999.90;999.90;;;11.70;99.90;;;;;;5033140;28;20105;-68
2024/04/02 04:26:27;;;;;;;1999.90;999.90;;;11.70;99.90;;;;;;5033555;28;20116;-74
2024/04/02 04:28:53;;;;;;;1999.90;999.90;;;11.70;99.90;;;;;;5033422;28;20045;-68
2024/04/02 04:31:18;;;;;;;1999.90;999.90;;;11.70;99.90;;;;;;5033358;28;20530;-68
2024/04/02 04:33:44;;;;;;;1999.90;999.90;;;11.70;99.90;;;;;;5033120;28;20393;-68
2024/04/02 04:36:12;;;;;;;1999.90;999.90;;;11.70;99.90;;;;;;5033294;28;20108;-74
2024/04/02 04:38:37;;;;;;;1999.90;999.90;;;11.70;99.90;;;;;;5033269;28;20104;-74
2024/04/02 04:41:03;;;;;;;1999.90;999.90;;;11.70;99.90;;;;;;5032956;28;20057;-68
2024/04/02 04:43:28;;;;;;;1999.90;999.90;;;11.70;99.90;;;;;;5033232;28;20033;-68
2024/04/02 04:46:01;;;;;;;1999.90;999.90;;;11.70;99.90;;;;;;5032819;28;20029;-74
2024/04/02 04:48:27;;;;;;;1999.90;999.90;;;11.70;99.90;;;;;;5032957;28;20064;-69
2024/04/02 04:51:01;;;;;;;1999.90;999.90;;;11.60;99.90;;;;;;5032638;28;20052;-68
2024/04/02 04:53:28;;;;;;;1999.90;999.90;;;11.60;99.90;;;;;;5032239;28;20091;-74
2024/04/02 04:56:00;;;;;;;1999.90;999.90;;;11.60;99.90;;;;;;5033255;28;20029;-68
2024/04/02 04:58:26;;;;;;;1999.90;999.90;;;11.60;99.90;;;;;;5032955;28;20028;-68
2024/04/02 05:00:52;;;;;;;1999.90;999.90;;;11.60;99.90;;;;;;5032926;28;20025;-68
2024/04/02 05:03:18;;;;;;;1999.90;999.90;;;11.60;99.90;;;;;;5032279;28;20480;-68
2024/04/02 05:05:44;;;;;;;1999.90;999.90;;;11.70;99.90;;;;;;5031361;28;20400;-74
2024/04/02 05:08:19;;;;;;;1999.90;999.90;;;11.60;99.90;;;;;;5032548;28;20041;-68
2024/04/02 05:10:46;;;;;;;1999.90;999.90;;;11.60;99.90;;;;;;5032734;28;20038;-74
2024/04/02 05:13:11;;;;;;;1999.90;999.90;;;11.60;99.90;;;;;;5032502;28;20021;-68
2024/04/02 05:15:37;;;;;;;1999.90;999.90;;;11.60;99.90;;;;;;5032927;28;20113;-74
2024/04/02 05:18:04;;;;;;;1999.90;999.90;;;11.60;99.90;;;;;;5032146;28;20405;-68
2024/04/02 05:20:30;;;;;;;1999.90;999.90;;;11.60;99.90;;;;;;5032445;28;20565;-68
2024/04/02 05:22:55;;;;;;;1999.90;999.90;;;11.60;99.90;;;;;;5032474;28;20116;-69
2024/04/02 05:25:21;;;;;;;1999.90;999.90;;;11.60;99.90;;;;;;5032201;28;20033;-69
2024/04/02 05:27:48;;;;;;;1999.90;999.90;;;11.60;99.90;;;;;;5030930;28;20489;-70
2024/04/02 05:30:13;;;;;;;1999.90;999.90;;;11.50;99.90;;;;;;5027564;28;20033;-68
2024/04/02 05:32:40;;;;;;;1999.90;999.90;;;11.60;99.90;;;;;;5029369;28;20025;-73
2024/04/02 05:35:06;;;;;;;1999.90;999.90;;;11.50;99.90;;;;;;5032068;28;20026;-69
2024/04/02 05:37:32;;;;;;;1999.90;999.90;;;11.50;99.90;;;;;;5031565;28;20022;-68
2024/04/02 05:39:58;;;;;;;1999.90;999.90;;;11.50;99.90;;;;;;5032203;28;20051;-69
2024/04/02 05:42:23;;;;;;;1999.90;999.90;;;11.50;99.90;;;;;;5032021;28;20030;-68
2024/04/02 05:44:49;;;;;;;1999.90;999.90;;;11.60;99.90;;;;;;5032332;28;20029;-68
2024/04/02 05:47:16;;;;;;;1999.90;999.90;;;11.60;99.90;;;;;;5032031;28;20037;-68
2024/04/02 05:49:41;;;;;;;1999.90;999.90;;;11.60;99.90;;;;;;5031844;28;20072;-68
2024/04/02 05:52:07;;;;;;;1999.90;999.90;;;11.70;99.90;;;;;;5031592;28;20041;-73
2024/04/02 05:54:32;;;;;;;1999.90;999.90;;;11.70;99.90;;;;;;5031286;28;20100;-74
2024/04/02 05:56:58;;;;;;;1999.90;999.90;;;11.70;99.90;;;;;;5040070;28;20056;-73
2024/04/02 05:59:24;;;;;;;1999.90;999.90;;;11.70;99.90;;;;;;5037809;28;20026;-67
2024/04/02 06:01:52;;;;;;;1999.90;999.90;;;11.70;99.90;;;;;;5031398;28;20029;-73
2024/04/02 06:04:17;;;;;;;1999.90;999.90;;;11.70;99.90;;;;;;5034400;28;20025;-67
2024/04/02 06:06:45;;;;;;;1999.90;999.90;;;11.70;99.90;;;;;;5035587;28;20052;-67
2024/04/02 06:09:12;;;;;;;1999.90;999.90;;;11.70;99.90;;;;;;5033688;28;20562;-73
2024/04/02 06:11:37;;;;;;;1999.90;999.90;;;11.70;99.90;;;;;;5034207;28;20496;-67
2024/04/02 06:14:03;;;;;;;1999.90;999.90;;;11.70;99.90;;;;;;5041232;28;20052;-68
2024/04/02 06:16:28;;;;;;;1999.90;999.90;;;11.80;99.90;;;;;;5034138;28;20060;-67
2024/04/02 06:18:54;;;;;;;1999.90;999.90;;;11.80;99.90;;;;;;5040266;28;20046;-73
2024/04/02 06:21:20;;;;;;;1999.90;999.90;;;11.80;99.90;;;;;;5033884;28;20029;-73
2024/04/02 06:23:46;;;;;;;1999.90;999.90;;;11.90;99.90;;;;;;5033810;28;20040;-73
2024/04/02 06:26:14;;;;;;;1999.90;999.90;;;11.90;99.90;;;;;;5034569;28;20136;-74
2024/04/02 06:28:40;;;;;;;1999.90;999.90;;;12.00;99.90;;;;;;5033041;28;20022;-67
2024/04/02 06:31:05;;;;;;;1999.90;999.90;;;12.00;99.90;;;;;;5034113;28;20032;-68
2024/04/02 06:33:31;;;;;;;1999.90;999.90;;;12.00;99.90;;;;;;5034484;28;20025;-73
2024/04/02 06:35:57;;;;;;;1999.90;999.90;;;12.10;99.90;;;;;;5034026;28;20160;-73
2024/04/02 06:38:22;;;;;;;1999.90;999.90;;;12.10;99.90;;;;;;5034307;28;20040;-72
2024/04/02 06:40:48;;;;;;;1999.90;999.90;;;12.20;99.90;;;;;;5032846;28;20508;-68
2024/04/02 06:43:14;;;;;;;1999.90;999.90;;;12.40;99.90;;;;;;5034832;28;20068;-73
2024/04/02 06:45:41;;;;;;;1999.90;999.90;;;12.50;99.90;;;;;;5034929;28;20037;-68
2024/04/02 06:48:07;;;;;;;1999.90;999.90;;;12.50;99.90;;;;;;5034443;28;20125;-72
2024/04/02 06:50:33;;;;;;;1999.90;999.90;;;12.50;99.90;;;;;;5025954;28;20112;-73
2024/04/02 06:52:58;;;;;;;1999.90;999.90;;;12.50;99.90;;;;;;5040255;28;20021;-73
2024/04/02 06:55:24;;;;;;;1999.90;999.90;;;12.50;99.90;;;;;;5033474;28;20029;-68
2024/04/02 06:57:50;;;;;;;1999.90;999.90;;;12.50;99.90;;;;;;5032356;28;20029;-68
2024/04/02 07:00:16;;;;;;;1999.90;999.90;;;12.50;99.90;;;;;;5029389;28;20037;-73
2024/04/02 07:02:42;;;;;;;1999.90;999.90;;;12.50;99.90;;;;;;5030709;28;20095;-72
2024/04/02 07:05:08;;;;;;;1999.90;999.90;;;12.60;99.90;;;;;;5031494;28;20033;-67
2024/04/02 07:07:33;;;;;;;1999.90;999.90;;;12.70;99.90;;;;;;5053315;28;20395;-68
2024/04/02 07:09:59;;;;;;;1999.90;999.90;;;12.90;99.90;;;;;;5040134;28;20032;-72
2024/04/02 07:12:25;;;;;;;1999.90;999.90;;;13.00;99.90;;;;;;5032388;28;20040;-67
2024/04/02 07:14:50;;;;;;;1999.90;999.90;;;12.90;99.90;;;;;;5032117;28;20039;-69
2024/04/02 07:17:16;;;;;;;1999.90;999.90;;;12.90;99.90;;;;;;5030424;28;20029;-68
2024/04/02 07:19:42;;;;;;;1999.90;999.90;;;12.90;99.90;;;;;;5032978;28;20480;-68
2024/04/02 07:22:07;;;;;;;1999.90;999.90;;;12.80;99.90;;;;;;5030304;28;20136;-67
2024/04/02 07:24:33;;;;;;;1999.90;999.90;;;12.60;99.90;;;;;;5032087;28;20026;-67
2024/04/02 07:27:00;;;;;;;1999.90;999.90;;;12.60;99.90;;;;;;5031636;28;20021;-73
2024/04/02 07:29:25;;;;;;;1999.90;999.90;;;12.80;99.90;;;;;;5033350;28;20029;-73
2024/04/02 07:31:51;;;;;;;1999.90;999.90;;;12.80;99.90;;;;;;5031588;28;20028;-68
2024/04/02 07:34:16;;;;;;;1999.90;999.90;;;12.80;99.90;;;;;;5031806;28;20033;-73
2024/04/02 07:36:44;;;;;;;1999.90;999.90;;;12.70;99.90;;;;;;5031503;28;20036;-73
2024/04/02 07:39:10;;;;;;;1999.90;999.90;;;12.50;99.90;;;;;;5031754;28;20083;-73
2024/04/02 07:41:35;;;;;;;1999.90;999.90;;;12.60;99.90;;;;;;5031781;28;20439;-72
2024/04/02 07:44:01;;;;;;;1999.90;999.90;;;12.70;99.90;;;;;;5031474;28;20492;-68
2024/04/02 07:46:27;;;;;;;1999.90;999.90;;;12.60;99.90;;;;;;5031583;28;20044;-68
2024/04/02 07:48:52;;;;;;;1999.90;999.90;;;12.50;99.90;;;;;;5030941;28;20724;-73
2024/04/02 07:51:18;;;;;;;1999.90;999.90;;;12.30;99.90;;;;;;5032026;28;20400;-73
2024/04/02 07:53:44;;;;;;;1999.90;999.90;;;12.30;99.90;;;;;;5032002;28;20025;-68
2024/04/02 07:56:10;;;;;;;1999.90;999.90;;;12.30;99.90;;;;;;5032039;28;20030;-73
2024/04/02 07:58:36;;;;;;;1999.90;999.90;;;12.30;99.90;;;;;;5032265;28;20021;-68
2024/04/02 08:01:02;;;;;;;1999.90;999.90;;;12.40;99.90;;;;;;5032470;28;20029;-68
2024/04/02 08:03:27;;;;;;;1999.90;999.90;;;12.70;99.90;;;;;;5031635;28;20396;-68
2024/04/02 08:06:00;;;;;;;1999.90;999.90;;;12.90;99.90;;;;;;5043486;28;20084;-68
2024/04/02 08:08:26;;;;;;;1999.90;999.90;;;13.30;99.90;;;;;;5031427;28;20033;-73
2024/04/02 08:10:51;;;;;;;1999.90;999.90;;;13.00;99.90;;;;;;5031191;28;20033;-73
2024/04/02 08:13:17;;;;;;;1999.90;999.90;;;12.60;99.90;;;;;;5031379;28;20076;-68
2024/04/02 08:15:45;;;;;;;1999.90;999.90;;;12.60;99.90;;;;;;5030865;28;20021;-67
2024/04/02 08:18:11;;;;;;;1999.90;999.90;;;12.50;99.90;;;;;;5030882;28;20053;-72
2024/04/02 08:20:36;;;;;;;1999.90;999.90;;;12.70;99.90;;;;;;5032546;28;20045;-68
2024/04/02 08:23:04;;;;;;;1999.90;999.90;;;12.60;99.90;;;;;;5030531;28;20643;-68
2024/04/02 08:25:30;;;;;;;1999.90;999.90;;;12.60;99.90;;;;;;5034422;28;20392;-72
2024/04/02 08:27:55;;;;;;;1999.90;999.90;;;12.60;99.90;;;;;;5029896;28;20029;-73
2024/04/02 08:30:21;;;;;;;1999.90;999.90;;;12.60;99.90;;;;;;5032109;28;20029;-68
2024/04/02 08:32:47;;;;;;;1999.90;999.90;;;12.70;99.90;;;;;;5030800;28;20511;-73
2024/04/02 08:35:12;;;;;;;1999.90;999.90;;;12.70;99.90;;;;;;5030279;28;20123;-73
2024/04/02 08:37:38;;;;;;;1999.90;999.90;;;12.80;99.90;;;;;;5029918;28;20040;-67
2024/04/02 08:40:04;;;;;;;1999.90;999.90;;;12.80;99.90;;;;;;5030885;28;20040;-68
2024/04/02 08:42:30;;;;;;;1999.90;999.90;;;12.90;99.90;;;;;;5030726;28;20033;-72
2024/04/02 08:44:59;;;;;;;1999.90;999.90;;;12.90;99.90;;;;;;5031318;28;20028;-73
2024/04/02 08:47:26;;;;;;;1999.90;999.90;;;13.20;99.90;;;;;;5039757;28;20046;-73
2024/04/02 08:49:52;;;;;;;1999.90;999.90;;;13.40;99.90;;;;;;5045309;28;20083;-67
2024/04/02 08:52:18;;;;;;;1999.90;999.90;;;13.20;99.90;;;;;;5033853;28;20065;-73
2024/04/02 08:54:44;;;;;;;1999.90;999.90;;;13.20;99.90;;;;;;5038406;28;20523;-72
2024/04/02 08:57:12;;;;;;;1999.90;999.90;;;13.50;99.90;;;;;;5040927;28;20451;-74
2024/04/02 08:59:42;;;;;;;1999.90;999.90;;;13.70;99.90;;;;;;5031459;28;20041;-66
2024/04/02 09:02:10;;;;;;;1999.90;999.90;;;13.50;99.90;;;;;;5045568;28;20025;-73
2024/04/02 09:04:35;;;;;;;1999.90;999.90;;;13.40;99.90;;;;;;5033315;28;20109;-67
2024/04/02 09:07:02;;;;;;;1999.90;999.90;;;13.40;99.90;;;;;;5044047;28;20060;-67
2024/04/02 09:09:27;;;;;;;1999.90;999.90;;;13.60;99.90;;;;;;5025943;28;20448;-73
2024/04/02 09:11:53;;;;;;;1999.90;999.90;;;13.80;99.90;;;;;;5044055;28;20045;-73
2024/04/02 09:14:20;;;;;;;1999.90;999.90;;;14.20;99.90;;;;;;5028244;28;20452;-68
2024/04/02 09:16:47;;;;;;;1999.90;999.90;;;14.40;99.90;;;;;;5047931;28;20033;-73
2024/04/02 09:19:12;;;;;;;1999.90;999.90;;;14.80;99.90;;;;;;5041203;28;20143;-68
2024/04/02 09:21:38;;;;;;;1999.90;999.90;;;15.50;99.90;;;;;;5031578;28;20365;-68
2024/04/02 09:24:04;;;;;;;1999.90;999.90;;;16.00;99.90;;;;;;5041209;28;20032;-68
2024/04/02 09:26:30;;;;;;;1999.90;999.90;;;17.40;99.90;;;;;;5033830;28;20037;-74
2024/04/02 09:28:55;;;;;;;1999.90;999.90;;;18.70;99.90;;;;;;5044013;28;20026;-68
2024/04/02 09:31:21;;;;;;;1999.90;999.90;;;17.30;99.90;;;;;;5027557;28;20044;-73
2024/04/02 09:33:50;;;;;;;1999.90;999.90;;;15.90;99.90;;;;;;5042755;28;20475;-68
2024/04/02 09:36:27;;;;;;;1999.90;999.90;;;15.10;99.90;;;;;;5032896;28;20116;-74
2024/04/02 09:38:55;;;;;;;1999.90;999.90;;;14.50;99.90;;;;;;5048148;28;20049;-67
2024/04/02 09:41:24;;;;;;;1999.90;999.90;;;14.50;99.90;;;;;;5038334;28;20048;-72
2024/04/02 09:43:51;;;;;;;1999.90;999.90;;;14.80;99.90;;;;;;5043143;28;20021;-68
2024/04/02 09:46:17;;;;;;;1999.90;999.90;;;15.00;99.90;;;;;;5049677;28;20488;-67
2024/04/02 09:48:44;;;;;;;1999.90;999.90;;;15.10;99.90;;;;;;5049656;28;20116;-73
2024/04/02 09:51:11;;;;;;;1999.90;999.90;;;15.40;99.90;;;;;;5042762;28;20028;-74
2024/04/02 09:53:37;;;;;;;1999.90;999.90;;;15.80;99.90;;;;;;5046823;28;20152;-68
2024/04/02 09:56:05;;;;;;;1999.90;999.90;;;16.10;99.90;;;;;;5042600;28;20467;-73
2024/04/02 09:58:30;;;;;;;1999.90;999.90;;;16.10;99.90;;;;;;5050298;28;20116;-68
2024/04/02 10:00:59;;;;;;;1999.90;999.90;;;16.10;99.90;;;;;;5037289;28;20147;-73
2024/04/02 10:03:28;;;;;;;1999.90;999.90;;;16.20;99.90;;;;;;5041795;28;20048;-74
2024/04/02 10:06:02;;;;;;;1999.90;999.90;;;16.40;99.90;;;;;;5038863;28;20022;-68
2024/04/02 10:08:27;;;;;;;1999.90;999.90;;;16.00;99.90;;;;;;5049476;28;20060;-68
2024/04/02 10:10:55;;;;;;;1999.90;999.90;;;16.10;99.90;;;;;;5038505;28;20091;-73
2024/04/02 10:13:21;;;;;;;1999.90;999.90;;;15.60;99.90;;;;;;5044262;28;20036;-68
2024/04/02 10:15:53;;;;;;;1999.90;999.90;;;15.40;99.90;;;;;;5045560;28;20029;-72
2024/04/02 10:18:22;;;;;;;1999.90;999.90;;;15.50;99.90;;;;;;5035284;28;20120;-73
2024/04/02 10:20:57;;;;;;;1999.90;999.90;;;15.70;99.90;;;;;;5038214;28;20280;-73
2024/04/02 10:23:25;;;;;;;1999.90;999.90;;;15.80;99.90;;;;;;5036609;28;20364;-68
2024/04/02 10:25:50;;;;;;;1999.90;999.90;;;15.80;99.90;;;;;;5047187;28;20033;-73
2024/04/02 10:28:25;;;;;;;1999.90;999.90;;;15.60;99.90;;;;;;5039275;28;20083;-73
2024/04/02 10:30:50;;;;;;;1999.90;999.90;;;15.50;99.90;;;;;;5035466;28;20033;-73
2024/04/02 10:33:20;;;;;;;1999.90;999.90;;;15.30;99.90;;;;;;5039914;28;20036;-73
2024/04/02 10:35:46;;;;;;;1999.90;999.90;;;15.10;99.90;;;;;;5030153;28;20017;-69
2024/04/02 10:38:12;;;;;;;1999.90;999.90;;;15.00;99.90;;;;;;5048892;28;20029;-67
2024/04/02 10:40:38;;;;;;;1999.90;999.90;;;15.00;99.90;;;;;;5031802;28;20033;-72
2024/04/02 10:43:04;;;;;;;1999.90;999.90;;;15.10;99.90;;;;;;5031005;28;20370;-74
2024/04/02 10:45:30;;;;;;;1999.90;999.90;;;15.10;99.90;;;;;;5031237;28;20625;-74
2024/04/02 10:47:56;;;;;;;1999.90;999.90;;;15.10;99.90;;;;;;5034212;28;20029;-73
2024/04/02 10:50:25;;;;;;;1999.90;999.90;;;15.20;99.90;;;;;;5029687;28;20544;-73
2024/04/02 10:52:52;;;;;;;1999.90;999.90;;;15.30;99.90;;;;;;5034290;28;20057;-73
2024/04/02 10:55:19;;;;;;;1999.90;999.90;;;15.40;99.90;;;;;;5029778;28;20077;-73
2024/04/02 10:57:44;;;;;;;1999.90;999.90;;;15.60;99.90;;;;;;5030595;28;20486;-68
2024/04/02 11:00:12;;;;;;;1999.90;999.90;;;15.70;99.90;;;;;;5030836;28;20040;-67
2024/04/02 11:02:41;;;;;;;1999.90;999.90;;;15.70;99.90;;;;;;5036280;28;20037;-73
2024/04/02 11:05:13;;;;;;;1999.90;999.90;;;15.50;99.90;;;;;;5034601;28;20024;-68
2024/04/02 11:07:40;;;;;;;1999.90;999.90;;;15.90;99.90;;;;;;5030261;28;20087;-73
2024/04/02 11:10:06;;;;;;;1999.90;999.90;;;16.00;99.90;;;;;;5030656;28;20562;-73
2024/04/02 11:12:32;;;;;;;1999.90;999.90;;;15.80;99.90;;;;;;5032412;28;20021;-68
2024/04/02 11:14:58;;;;;;;1999.90;999.90;;;15.60;99.90;;;;;;5030305;28;20029;-67
2024/04/02 11:17:24;;;;;;;1999.90;999.90;;;15.80;99.90;;;;;;5030477;28;20510;-68
2024/04/02 11:19:50;;;;;;;1999.90;999.90;;;15.70;99.90;;;;;;5031747;28;20091;-67
2024/04/02 11:25:14;;;;;;;1999.90;999.90;;;15.90;99.90;;;;;;5036397;28;20117;-73
2024/04/02 11:27:43;;;;;;;1999.90;999.90;;;16.20;99.90;;;;;;5039788;28;20099;-73
2024/04/02 11:30:10;;;;;;;1999.90;999.90;;;16.40;99.90;;;;;;5028926;28;20451;-68
2024/04/02 11:32:36;;;;;;;1999.90;999.90;;;16.50;99.90;;;;;;5039323;28;20427;-68
2024/04/02 11:35:04;;;;;;;1999.90;999.90;;;16.60;99.90;;;;;;5045181;28;20085;-73
2024/04/02 11:37:32;;;;;;;1999.90;999.90;;;16.50;99.90;;;;;;5042058;28;20036;-74
2024/04/02 11:39:59;;;;;;;1999.90;999.90;;;16.60;99.90;;;;;;5037680;28;20040;-73
2024/04/02 11:42:25;;;;;;;1999.90;999.90;;;16.70;99.90;;;;;;5034827;28;20026;-68
2024/04/02 11:44:54;;;;;;;1999.90;999.90;;;16.90;99.90;;;;;;5046504;28;20025;-69
2024/04/02 11:47:20;;;;;;;1999.90;999.90;;;16.80;99.90;;;;;;5031165;28;20567;-73
2024/04/02 11:49:46;;;;;;;1999.90;999.90;;;16.80;99.90;;;;;;5030926;28;20483;-73
2024/04/02 11:52:12;;;;;;;1999.90;999.90;;;17.10;99.90;;;;;;5047095;28;20035;-68
2024/04/02 11:54:37;;;;;;;1999.90;999.90;;;16.80;99.90;;;;;;5034098;28;20025;-68
2024/04/02 12:02:40;;;;;;;1999.90;999.90;;;16.70;99.90;;;;;;5041292;28;20083;-73